Madera, CA

10:57 AM PDT on September 19, 2014 (GMT -0700)
Madera Municipal | Change Station
CLOSE
Current Station
Airport
Location: Madera,
Elevation: 253 ft
Nearby Weather Stations

Elev 253 ft 36.99 °N, 120.11 °W | Updated 1 hour ago

Clear
Clear
73 °F
Feels Like 73 °F
N
8
Wind Variable Wind from WNW

Today
High -- | Low -- °F
--% Chance of Precip.
Yesterday
High -- | Low -- °F
Precip. -- in
6:45 AM 7:01 PM
Waning Crescent, 18% visible
Pressure 29.90 in
Visibility 10.0 miles
Clouds Clear
Dew Point 57 °F
Humidity 57%
Rainfall 0.00 in
Snow Depth 1 in , 0 in , 0 in
UV 4 out of 12
Pollen 5.90 out of 12
Air Quality Not available.
Flu Activity Not available.
METAR KMAE 191653Z AUTO 29007KT 10SM CLR 23/14 A2990 RMK AO2 SLP123 T02280139

More Conditions Fewer Conditions

Pressure 29.90 in
Visibility 10.0 miles
Clouds Clear
Dew Point 57 °F
Humidity 57%
Rainfall 0.00 in
Snow Depth 1 in , 0 in , 0 in
UV 4 out of 12
Pollen 5.90 out of 12
Air Quality Not available.
Flu Activity Not available.
METAR KMAE 191653Z AUTO 29007KT 10SM CLR 23/14 A2990 RMK AO2 SLP123 T02280139

More Conditions Fewer Conditions

10-Day Weather Forecast

Almanac

Astronomy

Sep. 19, 2014 Rise Set
Actual Time 6:45 AM PDT 7:01 PM PDT
Civil Twilight 6:19 AM PDT 7:27 PM PDT
Nautical Twilight 5:49 AM PDT 7:58 PM PDT
Astronomical Twilight 5:18 AM PDT 8:28 PM PDT
Moon 2:40 AM PDT 4:29 PM PDT
Length of Visible Light 13h 07m
Length of Day
12h 15m
Tomorrow will be 2m 20s shorter.
Waning Crescent, 18% of the Moon is Illuminated
Today
Waning Crescent
Sep 24
New
Oct 1
First Quarter
Oct 8
Full
Oct 15
Last Quarter

Today's Extremes

State Highs State Lows

Community

WunderPhotos

Upload Photos

1,754,668 photos uploaded!

Nearby

Air Quality

  Air Quality AQ Index Pollutant
Yesterday Good
OZONE
Friday Moderate
PM2.5
Saturday Moderate
PM2.5
Sunday Moderate
PM2.5
Monday Moderate
PM2.5
Tuesday Moderate
PM2.5

Snow Depth

Station Depth Elevation
Adin Mountain 1 in 6200 ft
Poison Flat 0 in 7900 ft
Tahoe City Cross 0 in 6750 ft
Spratt Creek 1 in 6200 ft
Rubicon #2 0 in 7500 ft

Earthquake Activity

City Distance Mag. Time & Date
Gabbs, Nevada 175 miles 3.3 4:37 AM PDT
2014-09-19
Livermore, California 101 miles 2.6 3:37 AM PDT
2014-09-19
Corcoran, California 67 miles 3.0 3:59 PM PDT
2014-09-18
Minimum magnitude displayed is 2.5.

Coastal Water Temperatures

Place Temperature
No Stations Reporting

Nearby Weather Stations